sensor_id;sensor_type;location;lat;lon;timestamp;pressure;altitude;pressure_sealevel;temperature;humidity
8253;BME280;61313;48.396;10.008;2023-04-07T00:01:22;96269.03;;;9.44;52.21
8253;BME280;61313;48.396;10.008;2023-04-07T00:03:48;96272.16;;;9.32;52.40
8253;BME280;61313;48.396;10.008;2023-04-07T00:06:13;96273.88;;;9.33;53.42
8253;BME280;61313;48.396;10.008;2023-04-07T00:08:39;96268.50;;;9.36;54.33
8253;BME280;61313;48.396;10.008;2023-04-07T00:11:04;96268.28;;;9.20;55.88
8253;BME280;61313;48.396;10.008;2023-04-07T00:13:30;96265.53;;;9.23;55.67
8253;BME280;61313;48.396;10.008;2023-04-07T00:15:55;96262.00;;;9.24;55.96
8253;BME280;61313;48.396;10.008;2023-04-07T00:18:21;96259.41;;;9.24;55.72
8253;BME280;61313;48.396;10.008;2023-04-07T00:20:46;96266.03;;;9.33;54.97
8253;BME280;61313;48.396;10.008;2023-04-07T00:23:12;96255.94;;;9.24;56.32
8253;BME280;61313;48.396;10.008;2023-04-07T00:25:37;96253.22;;;9.25;57.05
8253;BME280;61313;48.396;10.008;2023-04-07T00:28:03;96249.34;;;9.36;56.93
8253;BME280;61313;48.396;10.008;2023-04-07T00:30:28;96239.34;;;9.23;57.30
8253;BME280;61313;48.396;10.008;2023-04-07T00:32:54;96245.69;;;9.18;57.92
8253;BME280;61313;48.396;10.008;2023-04-07T00:35:19;96235.63;;;9.29;58.40
8253;BME280;61313;48.396;10.008;2023-04-07T00:37:45;96229.75;;;9.24;58.50
8253;BME280;61313;48.396;10.008;2023-04-07T00:40:10;96229.06;;;9.19;58.85
8253;BME280;61313;48.396;10.008;2023-04-07T00:42:36;96228.16;;;9.20;58.98
8253;BME280;61313;48.396;10.008;2023-04-07T00:45:01;96220.50;;;9.15;59.44
8253;BME280;61313;48.396;10.008;2023-04-07T00:47:27;96216.09;;;9.16;59.41
8253;BME280;61313;48.396;10.008;2023-04-07T00:49:52;96211.19;;;9.08;59.89
8253;BME280;61313;48.396;10.008;2023-04-07T00:52:18;96219.69;;;9.13;60.01
8253;BME280;61313;48.396;10.008;2023-04-07T00:54:53;96213.34;;;8.98;60.29
8253;BME280;61313;48.396;10.008;2023-04-07T00:57:18;96211.56;;;8.99;60.68
8253;BME280;61313;48.396;10.008;2023-04-07T00:59:43;96214.06;;;8.80;61.43
8253;BME280;61313;48.396;10.008;2023-04-07T01:02:13;96213.72;;;8.89;61.59
8253;BME280;61313;48.396;10.008;2023-04-07T01:08:02;96194.63;;;8.65;62.21
8253;BME280;61313;48.396;10.008;2023-04-07T01:10:04;96191.56;;;8.76;61.52
8253;BME280;61313;48.396;10.008;2023-04-07T01:13:00;96181.22;;;8.73;61.62
8253;BME280;61313;48.396;10.008;2023-04-07T01:15:29;96182.31;;;8.67;61.11
8253;BME280;61313;48.396;10.008;2023-04-07T01:18:18;96181.28;;;8.71;62.38
8253;BME280;61313;48.396;10.008;2023-04-07T01:20:48;96176.47;;;8.82;62.00
8253;BME280;61313;48.396;10.008;2023-04-07T01:24:02;96180.59;;;8.88;61.39
8253;BME280;61313;48.396;10.008;2023-04-07T01:26:48;96179.28;;;8.56;62.16
8253;BME280;61313;48.396;10.008;2023-04-07T01:29:33;96174.22;;;8.51;63.11
8253;BME280;61313;48.396;10.008;2023-04-07T01:32:01;96175.25;;;8.69;62.76
8253;BME280;61313;48.396;10.008;2023-04-07T01:34:30;96177.09;;;8.67;62.40
8253;BME280;61313;48.396;10.008;2023-04-07T01:36:57;96176.34;;;8.63;62.82
8253;BME280;61313;48.396;10.008;2023-04-07T01:39:25;96182.78;;;8.55;63.26
8253;BME280;61313;48.396;10.008;2023-04-07T01:41:52;96180.34;;;8.26;63.95
8253;BME280;61313;48.396;10.008;2023-04-07T01:44:19;96177.84;;;8.01;64.58
8253;BME280;61313;48.396;10.008;2023-04-07T01:46:44;96179.94;;;7.92;65.40
8253;BME280;61313;48.396;10.008;2023-04-07T01:49:11;96172.44;;;8.06;65.16
8253;BME280;61313;48.396;10.008;2023-04-07T01:51:38;96168.78;;;8.10;64.82
8253;BME280;61313;48.396;10.008;2023-04-07T01:54:05;96166.22;;;7.61;66.73
8253;BME280;61313;48.396;10.008;2023-04-07T01:56:31;96160.16;;;7.61;67.41
8253;BME280;61313;48.396;10.008;2023-04-07T01:58:56;96166.50;;;7.54;67.30
8253;BME280;61313;48.396;10.008;2023-04-07T02:01:22;96159.09;;;7.67;66.61
8253;BME280;61313;48.396;10.008;2023-04-07T02:03:55;96154.47;;;7.50;67.63
8253;BME280;61313;48.396;10.008;2023-04-07T02:06:33;96152.75;;;7.49;67.25
8253;BME280;61313;48.396;10.008;2023-04-07T02:09:04;96146.94;;;7.89;65.62
8253;BME280;61313;48.396;10.008;2023-04-07T02:11:32;96147.84;;;7.88;65.56
8253;BME280;61313;48.396;10.008;2023-04-07T02:14:00;96147.22;;;7.81;65.77
8253;BME280;61313;48.396;10.008;2023-04-07T02:16:28;96144.66;;;8.03;64.87
8253;BME280;61313;48.396;10.008;2023-04-07T02:18:55;96138.34;;;8.09;64.23
8253;BME280;61313;48.396;10.008;2023-04-07T02:21:21;96140.41;;;8.01;64.37
8253;BME280;61313;48.396;10.008;2023-04-07T02:23:48;96131.81;;;7.97;64.91
8253;BME280;61313;48.396;10.008;2023-04-07T02:26:13;96128.41;;;7.72;65.97
8253;BME280;61313;48.396;10.008;2023-04-07T02:28:39;96121.53;;;7.46;66.25
8253;BME280;61313;48.396;10.008;2023-04-07T02:31:04;96117.22;;;7.45;66.22
8253;BME280;61313;48.396;10.008;2023-04-07T02:33:30;96125.34;;;7.60;66.20
8253;BME280;61313;48.396;10.008;2023-04-07T02:35:55;96122.22;;;7.51;66.57
8253;BME280;61313;48.396;10.008;2023-04-07T02:38:21;96122.91;;;7.79;65.91
8253;BME280;61313;48.396;10.008;2023-04-07T02:40:46;96121.34;;;7.75;65.84
8253;BME280;61313;48.396;10.008;2023-04-07T02:43:11;96114.72;;;7.65;65.47
8253;BME280;61313;48.396;10.008;2023-04-07T02:45:37;96118.63;;;7.53;66.36
8253;BME280;61313;48.396;10.008;2023-04-07T02:48:02;96111.22;;;7.42;66.53
8253;BME280;61313;48.396;10.008;2023-04-07T02:50:28;96117.91;;;7.50;66.29
8253;BME280;61313;48.396;10.008;2023-04-07T02:52:53;96114.38;;;7.51;65.91
8253;BME280;61313;48.396;10.008;2023-04-07T02:55:19;96107.31;;;7.54;65.35
8253;BME280;61313;48.396;10.008;2023-04-07T02:57:44;96108.16;;;7.55;65.49
8253;BME280;61313;48.396;10.008;2023-04-07T03:00:10;96103.09;;;7.50;65.70
8253;BME280;61313;48.396;10.008;2023-04-07T03:02:35;96101.56;;;7.45;66.58
8253;BME280;61313;48.396;10.008;2023-04-07T03:05:01;96104.19;;;7.68;65.48
8253;BME280;61313;48.396;10.008;2023-04-07T03:07:28;96095.59;;;7.41;66.36
8253;BME280;61313;48.396;10.008;2023-04-07T03:09:56;96093.41;;;7.54;65.95
8253;BME280;61313;48.396;10.008;2023-04-07T03:12:21;96085.63;;;7.52;65.78
8253;BME280;61313;48.396;10.008;2023-04-07T03:14:46;96085.41;;;7.58;65.58
8253;BME280;61313;48.396;10.008;2023-04-07T03:17:12;96089.88;;;7.55;65.87
8253;BME280;61313;48.396;10.008;2023-04-07T03:19:37;96081.69;;;7.64;65.14
8253;BME280;61313;48.396;10.008;2023-04-07T03:22:03;96080.91;;;7.62;65.76
8253;BME280;61313;48.396;10.008;2023-04-07T03:24:28;96086.06;;;7.63;65.82
8253;BME280;61313;48.396;10.008;2023-04-07T03:26:54;96077.81;;;7.74;65.85
8253;BME280;61313;48.396;10.008;2023-04-07T03:29:20;96081.81;;;7.61;65.25
8253;BME280;61313;48.396;10.008;2023-04-07T03:31:45;96077.50;;;7.60;66.17
8253;BME280;61313;48.396;10.008;2023-04-07T03:34:11;96072.16;;;7.39;66.54
8253;BME280;61313;48.396;10.008;2023-04-07T03:36:36;96069.31;;;7.46;66.02
8253;BME280;61313;48.396;10.008;2023-04-07T03:39:02;96072.94;;;7.41;66.90
8253;BME280;61313;48.396;10.008;2023-04-07T03:41:27;96072.38;;;7.57;65.98
8253;BME280;61313;48.396;10.008;2023-04-07T03:43:53;96069.97;;;7.27;66.82
8253;BME280;61313;48.396;10.008;2023-04-07T03:46:19;96062.78;;;7.34;66.45
8253;BME280;61313;48.396;10.008;2023-04-07T03:48:45;96067.13;;;7.35;66.43
8253;BME280;61313;48.396;10.008;2023-04-07T03:51:11;96068.84;;;7.58;65.73
8253;BME280;61313;48.396;10.008;2023-04-07T03:53:37;96063.53;;;7.14;67.32
8253;BME280;61313;48.396;10.008;2023-04-07T03:56:02;96065.22;;;7.62;65.75
8253;BME280;61313;48.396;10.008;2023-04-07T03:58:28;96060.50;;;7.25;67.75
8253;BME280;61313;48.396;10.008;2023-04-07T04:00:54;96065.53;;;7.06;68.73
8253;BME280;61313;48.396;10.008;2023-04-07T04:03:19;96066.81;;;6.94;68.70
8253;BME280;61313;48.396;10.008;2023-04-07T04:05:45;96062.28;;;6.99;68.75
8253;BME280;61313;48.396;10.008;2023-04-07T04:08:10;96058.50;;;7.08;68.04
8253;BME280;61313;48.396;10.008;2023-04-07T04:10:36;96052.91;;;7.18;68.00
8253;BME280;61313;48.396;10.008;2023-04-07T04:13:01;96055.47;;;7.43;66.90
8253;BME280;61313;48.396;10.008;2023-04-07T04:15:30;96046.72;;;7.68;66.11
8253;BME280;61313;48.396;10.008;2023-04-07T04:17:56;96038.59;;;7.76;65.46
8253;BME280;61313;48.396;10.008;2023-04-07T04:20:21;96045.94;;;7.88;65.13
8253;BME280;61313;48.396;10.008;2023-04-07T04:22:47;96051.03;;;7.69;65.46
8253;BME280;61313;48.396;10.008;2023-04-07T04:25:12;96039.91;;;7.64;66.02
8253;BME280;61313;48.396;10.008;2023-04-07T04:27:37;96036.66;;;7.81;65.82
8253;BME280;61313;48.396;10.008;2023-04-07T04:30:03;96034.91;;;7.58;67.29
8253;BME280;61313;48.396;10.008;2023-04-07T04:32:29;96037.28;;;7.42;67.94
8253;BME280;61313;48.396;10.008;2023-04-07T04:34:54;96046.56;;;7.49;67.33
8253;BME280;61313;48.396;10.008;2023-04-07T04:37:20;96036.41;;;7.41;67.99
8253;BME280;61313;48.396;10.008;2023-04-07T04:39:45;96038.66;;;7.51;67.11
8253;BME280;61313;48.396;10.008;2023-04-07T04:42:11;96040.25;;;7.31;67.79
8253;BME280;61313;48.396;10.008;2023-04-07T04:44:36;96037.44;;;7.14;68.75
8253;BME280;61313;48.396;10.008;2023-04-07T04:47:01;96037.44;;;7.14;68.92
8253;BME280;61313;48.396;10.008;2023-04-07T04:49:27;96035.34;;;7.47;68.02
8253;BME280;61313;48.396;10.008;2023-04-07T04:51:52;96039.97;;;7.62;66.83
8253;BME280;61313;48.396;10.008;2023-04-07T04:54:18;96043.22;;;7.46;67.57
8253;BME280;61313;48.396;10.008;2023-04-07T04:56:44;96039.59;;;7.50;67.28
8253;BME280;61313;48.396;10.008;2023-04-07T04:59:09;96047.97;;;7.34;68.46
8253;BME280;61313;48.396;10.008;2023-04-07T05:01:35;96038.00;;;7.46;67.96
8253;BME280;61313;48.396;10.008;2023-04-07T05:04:00;96036.56;;;7.60;67.43
8253;BME280;61313;48.396;10.008;2023-04-07T05:06:26;96036.41;;;7.41;67.94
8253;BME280;61313;48.396;10.008;2023-04-07T05:08:52;96039.28;;;7.34;68.42
8253;BME280;61313;48.396;10.008;2023-04-07T05:11:18;96046.72;;;6.97;69.61
8253;BME280;61313;48.396;10.008;2023-04-07T05:13:43;96041.81;;;6.88;69.98
8253;BME280;61313;48.396;10.008;2023-04-07T05:16:08;96042.31;;;6.73;70.48
8253;BME280;61313;48.396;10.008;2023-04-07T05:18:34;96047.88;;;7.14;69.05
8253;BME280;61313;48.396;10.008;2023-04-07T05:20:59;96043.78;;;7.30;68.60
8253;BME280;61313;48.396;10.008;2023-04-07T05:23:26;96043.09;;;7.25;68.76
8253;BME280;61313;48.396;10.008;2023-04-07T05:25:51;96035.38;;;7.22;68.42
8253;BME280;61313;48.396;10.008;2023-04-07T05:28:17;96046.56;;;7.26;68.58
8253;BME280;61313;48.396;10.008;2023-04-07T05:30:42;96042.66;;;7.14;68.76
8253;BME280;61313;48.396;10.008;2023-04-07T05:33:08;96036.47;;;7.16;69.18
8253;BME280;61313;48.396;10.008;2023-04-07T05:35:33;96041.06;;;7.33;68.50
8253;BME280;61313;48.396;10.008;2023-04-07T05:37:59;96039.28;;;7.34;68.56
8253;BME280;61313;48.396;10.008;2023-04-07T05:40:24;96032.91;;;7.42;68.85
8253;BME280;61313;48.396;10.008;2023-04-07T05:42:50;96034.97;;;7.09;69.74
8253;BME280;61313;48.396;10.008;2023-04-07T05:45:15;96032.88;;;7.19;69.63
8253;BME280;61313;48.396;10.008;2023-04-07T05:47:41;96032.31;;;7.11;69.69
8253;BME280;61313;48.396;10.008;2023-04-07T05:50:06;96035.06;;;7.06;69.58
8253;BME280;61313;48.396;10.008;2023-04-07T05:52:32;96035.09;;;7.30;69.10
8253;BME280;61313;48.396;10.008;2023-04-07T05:54:58;96036.00;;;7.29;69.25
8253;BME280;61313;48.396;10.008;2023-04-07T05:57:23;96043.72;;;7.32;69.57
8253;BME280;61313;48.396;10.008;2023-04-07T05:59:49;96043.66;;;7.33;69.48
8253;BME280;61313;48.396;10.008;2023-04-07T06:02:14;96037.19;;;7.67;68.37
8253;BME280;61313;48.396;10.008;2023-04-07T06:04:39;96041.41;;;7.48;68.34
8253;BME280;61313;48.396;10.008;2023-04-07T06:07:06;96028.19;;;7.74;68.08
8253;BME280;61313;48.396;10.008;2023-04-07T06:09:31;96034.84;;;7.83;68.04
8253;BME280;61313;48.396;10.008;2023-04-07T06:11:57;96033.44;;;7.96;67.17
8253;BME280;61313;48.396;10.008;2023-04-07T06:14:23;96031.63;;;7.53;69.16
8253;BME280;61313;48.396;10.008;2023-04-07T06:16:48;96030.97;;;7.48;69.39
8253;BME280;61313;48.396;10.008;2023-04-07T06:19:14;96035.94;;;7.77;67.93
8253;BME280;61313;48.396;10.008;2023-04-07T06:21:39;96038.28;;;7.61;68.50
8253;BME280;61313;48.396;10.008;2023-04-07T06:24:05;96040.19;;;7.80;68.17
8253;BME280;61313;48.396;10.008;2023-04-07T06:26:31;96040.97;;;8.04;67.85
8253;BME280;61313;48.396;10.008;2023-04-07T06:28:57;96031.13;;;7.89;67.75
8253;BME280;61313;48.396;10.008;2023-04-07T06:31:24;96026.00;;;8.07;67.24
8253;BME280;61313;48.396;10.008;2023-04-07T06:33:49;96022.50;;;8.09;66.52
8253;BME280;61313;48.396;10.008;2023-04-07T06:36:17;96018.50;;;8.00;67.00
8253;BME280;61313;48.396;10.008;2023-04-07T06:38:42;96019.91;;;8.09;66.87
8253;BME280;61313;48.396;10.008;2023-04-07T06:41:08;96019.03;;;8.30;65.61
8253;BME280;61313;48.396;10.008;2023-04-07T06:43:37;96017.25;;;8.31;66.06
8253;BME280;61313;48.396;10.008;2023-04-07T06:46:02;96015.09;;;8.42;65.35
8253;BME280;61313;48.396;10.008;2023-04-07T06:48:28;96022.69;;;8.48;65.18
8253;BME280;61313;48.396;10.008;2023-04-07T06:50:53;96022.31;;;8.13;66.48
8253;BME280;61313;48.396;10.008;2023-04-07T06:53:18;96024.19;;;8.32;66.33
8253;BME280;61313;48.396;10.008;2023-04-07T06:55:44;96028.47;;;7.90;66.97
8253;BME280;61313;48.396;10.008;2023-04-07T06:58:10;96029.91;;;7.75;68.36
8253;BME280;61313;48.396;10.008;2023-04-07T07:00:35;96029.19;;;7.94;68.09
8253;BME280;61313;48.396;10.008;2023-04-07T07:03:01;96026.88;;;8.30;66.06
8253;BME280;61313;48.396;10.008;2023-04-07T07:05:26;96023.19;;;8.56;65.05
8253;BME280;61313;48.396;10.008;2023-04-07T07:07:52;96018.81;;;8.77;63.23
8253;BME280;61313;48.396;10.008;2023-04-07T07:10:18;96026.72;;;8.76;63.18
8253;BME280;61313;48.396;10.008;2023-04-07T07:12:46;96022.13;;;9.01;62.82
8253;BME280;61313;48.396;10.008;2023-04-07T07:15:12;96029.25;;;9.18;61.87
8253;BME280;61313;48.396;10.008;2023-04-07T07:17:37;96026.56;;;9.59;61.56
8253;BME280;61313;48.396;10.008;2023-04-07T07:20:03;96022.94;;;10.17;59.61
8253;BME280;61313;48.396;10.008;2023-04-07T07:22:29;96015.50;;;10.08;60.10
8253;BME280;61313;48.396;10.008;2023-04-07T07:24:54;96017.25;;;9.90;59.26
8253;BME280;61313;48.396;10.008;2023-04-07T07:27:20;96015.31;;;9.93;58.93
8253;BME280;61313;48.396;10.008;2023-04-07T07:29:45;96015.28;;;11.01;56.55
8253;BME280;61313;48.396;10.008;2023-04-07T07:32:11;96006.44;;;11.69;53.79
8253;BME280;61313;48.396;10.008;2023-04-07T07:34:36;96012.19;;;11.59;53.72
8253;BME280;61313;48.396;10.008;2023-04-07T07:37:02;96006.50;;;11.51;53.88
8253;BME280;61313;48.396;10.008;2023-04-07T07:39:28;96005.75;;;11.81;52.82
8253;BME280;61313;48.396;10.008;2023-04-07T07:41:54;96003.69;;;11.88;52.58
8253;BME280;61313;48.396;10.008;2023-04-07T07:44:20;96005.22;;;11.42;54.19
8253;BME280;61313;48.396;10.008;2023-04-07T07:46:47;96006.53;;;11.34;54.40
8253;BME280;61313;48.396;10.008;2023-04-07T07:49:13;96014.22;;;10.35;56.81
8253;BME280;61313;48.396;10.008;2023-04-07T07:51:38;96007.25;;;11.04;54.78
8253;BME280;61313;48.396;10.008;2023-04-07T07:54:03;96005.63;;;11.01;54.99
8253;BME280;61313;48.396;10.008;2023-04-07T07:56:29;96007.44;;;11.66;53.00
8253;BME280;61313;48.396;10.008;2023-04-07T07:58:54;96008.81;;;12.21;51.31
8253;BME280;61313;48.396;10.008;2023-04-07T08:01:20;96009.06;;;12.32;51.06
8253;BME280;61313;48.396;10.008;2023-04-07T08:03:45;96010.94;;;11.82;52.45
8253;BME280;61313;48.396;10.008;2023-04-07T08:06:11;96002.03;;;11.69;52.51
8253;BME280;61313;48.396;10.008;2023-04-07T08:08:37;96012.91;;;12.11;51.24
8253;BME280;61313;48.396;10.008;2023-04-07T08:11:03;96005.91;;;12.41;50.34
8253;BME280;61313;48.396;10.008;2023-04-07T08:13:28;96006.66;;;11.15;52.46
8253;BME280;61313;48.396;10.008;2023-04-07T08:15:54;96013.88;;;11.11;53.64
8253;BME280;61313;48.396;10.008;2023-04-07T08:18:19;96007.03;;;11.74;51.85
8253;BME280;61313;48.396;10.008;2023-04-07T08:20:44;96018.75;;;11.84;51.49
8253;BME280;61313;48.396;10.008;2023-04-07T08:23:11;96010.13;;;11.98;51.68
8253;BME280;61313;48.396;10.008;2023-04-07T08:25:36;96011.69;;;12.32;50.10
8253;BME280;61313;48.396;10.008;2023-04-07T08:28:05;96009.34;;;12.58;49.83
8253;BME280;61313;48.396;10.008;2023-04-07T08:30:30;96012.44;;;12.50;49.71
8253;BME280;61313;48.396;10.008;2023-04-07T08:32:56;96009.44;;;12.86;48.21
8253;BME280;61313;48.396;10.008;2023-04-07T08:35:22;96006.31;;;12.80;49.08
8253;BME280;61313;48.396;10.008;2023-04-07T08:37:47;96012.50;;;13.09;47.00
8253;BME280;61313;48.396;10.008;2023-04-07T08:40:13;96012.75;;;12.60;48.69
8253;BME280;61313;48.396;10.008;2023-04-07T08:42:41;96022.13;;;11.70;51.08
8253;BME280;61313;48.396;10.008;2023-04-07T08:45:08;96018.44;;;12.06;50.04
8253;BME280;61313;48.396;10.008;2023-04-07T08:47:35;96016.88;;;12.34;48.93
8253;BME280;61313;48.396;10.008;2023-04-07T08:50:03;96009.69;;;12.21;49.26
8253;BME280;61313;48.396;10.008;2023-04-07T08:52:39;96003.00;;;12.62;48.99
8253;BME280;61313;48.396;10.008;2023-04-07T08:55:06;96007.34;;;12.01;48.96
8253;BME280;61313;48.396;10.008;2023-04-07T08:57:33;96010.69;;;12.19;49.50
8253;BME280;61313;48.396;10.008;2023-04-07T09:00:00;96015.94;;;12.35;48.75
8253;BME280;61313;48.396;10.008;2023-04-07T09:02:31;96009.22;;;12.75;47.76
8253;BME280;61313;48.396;10.008;2023-04-07T09:04:57;96004.66;;;13.07;47.65
8253;BME280;61313;48.396;10.008;2023-04-07T09:07:23;96012.63;;;13.36;46.92
8253;BME280;61313;48.396;10.008;2023-04-07T09:09:49;96009.88;;;13.66;44.97
8253;BME280;61313;48.396;10.008;2023-04-07T09:12:14;96015.09;;;13.68;45.03
8253;BME280;61313;48.396;10.008;2023-04-07T09:14:40;96010.75;;;13.52;44.59
8253;BME280;61313;48.396;10.008;2023-04-07T09:17:06;96011.97;;;13.61;45.95
8253;BME280;61313;48.396;10.008;2023-04-07T09:19:32;96013.88;;;13.45;45.60
8253;BME280;61313;48.396;10.008;2023-04-07T09:21:57;96007.00;;;13.42;45.51
8253;BME280;61313;48.396;10.008;2023-04-07T09:24:27;96010.84;;;13.37;46.03
8253;BME280;61313;48.396;10.008;2023-04-07T09:29:34;96017.59;;;13.26;46.40
8253;BME280;61313;48.396;10.008;2023-04-07T09:32:00;96009.75;;;13.25;46.99
8253;BME280;61313;48.396;10.008;2023-04-07T09:34:28;96002.59;;;12.98;47.94
8253;BME280;61313;48.396;10.008;2023-04-07T09:36:54;96003.25;;;12.11;49.41
8253;BME280;61313;48.396;10.008;2023-04-07T09:39:21;96009.94;;;12.63;48.89
8253;BME280;61313;48.396;10.008;2023-04-07T09:41:46;96002.06;;;12.47;48.58
8253;BME280;61313;48.396;10.008;2023-04-07T09:44:12;96003.84;;;12.46;48.30
8253;BME280;61313;48.396;10.008;2023-04-07T09:46:51;96006.22;;;12.81;47.23
8253;BME280;61313;48.396;10.008;2023-04-07T09:49:19;96000.97;;;12.51;48.66
8253;BME280;61313;48.396;10.008;2023-04-07T09:51:59;96003.25;;;12.87;47.45
8253;BME280;61313;48.396;10.008;2023-04-07T09:54:35;95997.25;;;13.14;46.54
8253;BME280;61313;48.396;10.008;2023-04-07T09:57:03;95992.84;;;13.58;45.62
8253;BME280;61313;48.396;10.008;2023-04-07T09:59:30;96006.81;;;13.01;46.96
8253;BME280;61313;48.396;10.008;2023-04-07T10:01:55;96004.72;;;13.36;46.37
8253;BME280;61313;48.396;10.008;2023-04-07T10:04:22;96006.09;;;13.85;45.98
8253;BME280;61313;48.396;10.008;2023-04-07T10:06:48;96003.66;;;14.23;43.81
8253;BME280;61313;48.396;10.008;2023-04-07T10:09:13;95990.09;;;14.42;42.19
8253;BME280;61313;48.396;10.008;2023-04-07T10:11:40;95996.75;;;14.48;42.73
8253;BME280;61313;48.396;10.008;2023-04-07T10:14:08;95997.06;;;14.43;43.56
8253;BME280;61313;48.396;10.008;2023-04-07T10:16:34;96003.00;;;13.78;45.72
8253;BME280;61313;48.396;10.008;2023-04-07T10:19:00;95995.13;;;13.35;47.74
8253;BME280;61313;48.396;10.008;2023-04-07T10:21:26;95992.22;;;13.54;48.12
8253;BME280;61313;48.396;10.008;2023-04-07T10:23:58;95992.97;;;13.42;48.63
8253;BME280;61313;48.396;10.008;2023-04-07T10:26:31;95995.47;;;12.70;49.70
8253;BME280;61313;48.396;10.008;2023-04-07T10:29:07;95999.41;;;12.63;50.01
8253;BME280;61313;48.396;10.008;2023-04-07T10:31:36;96003.22;;;12.27;51.11
8253;BME280;61313;48.396;10.008;2023-04-07T10:34:02;96003.34;;;13.00;49.32
8253;BME280;61313;48.396;10.008;2023-04-07T10:36:27;95998.63;;;12.91;48.74
8253;BME280;61313;48.396;10.008;2023-04-07T10:41:37;95993.75;;;12.99;47.12
8253;BME280;61313;48.396;10.008;2023-04-07T10:44:05;95997.09;;;13.31;47.05
8253;BME280;61313;48.396;10.008;2023-04-07T10:49:16;95997.19;;;13.59;49.90
8253;BME280;61313;48.396;10.008;2023-04-07T10:51:42;95989.59;;;14.50;47.15
8253;BME280;61313;48.396;10.008;2023-04-07T10:54:21;95983.84;;;14.43;46.88
8253;BME280;61313;48.396;10.008;2023-04-07T10:59:33;95992.34;;;13.08;49.78
8253;BME280;61313;48.396;10.008;2023-04-07T11:04:37;95991.88;;;12.57;50.46
8253;BME280;61313;48.396;10.008;2023-04-07T11:07:03;95996.38;;;12.24;52.25
8253;BME280;61313;48.396;10.008;2023-04-07T11:09:29;95990.13;;;12.41;51.21
8253;BME280;61313;48.396;10.008;2023-04-07T11:11:54;95991.16;;;12.39;51.21
8253;BME280;61313;48.396;10.008;2023-04-07T11:14:31;95983.25;;;12.69;51.20
8253;BME280;61313;48.396;10.008;2023-04-07T11:16:58;95985.88;;;13.13;49.22
8253;BME280;61313;48.396;10.008;2023-04-07T11:19:23;95992.22;;;13.54;47.08
8253;BME280;61313;48.396;10.008;2023-04-07T11:21:49;95989.84;;;13.64;47.75
8253;BME280;61313;48.396;10.008;2023-04-07T11:24:36;95989.84;;;13.21;48.86
8253;BME280;61313;48.396;10.008;2023-04-07T11:27:02;95990.16;;;13.30;48.45
8253;BME280;61313;48.396;10.008;2023-04-07T11:29:31;95993.56;;;13.02;49.59
8253;BME280;61313;48.396;10.008;2023-04-07T11:31:57;95995.03;;;12.92;49.12
8253;BME280;61313;48.396;10.008;2023-04-07T11:34:28;95987.81;;;12.05;51.36
8253;BME280;61313;48.396;10.008;2023-04-07T11:36:54;95989.38;;;12.39;49.51
8253;BME280;61313;48.396;10.008;2023-04-07T11:39:24;95993.94;;;13.10;48.32
8253;BME280;61313;48.396;10.008;2023-04-07T11:41:52;95988.34;;;13.60;47.23
8253;BME280;61313;48.396;10.008;2023-04-07T11:44:18;95978.78;;;13.86;46.14
8253;BME280;61313;48.396;10.008;2023-04-07T11:47:01;95990.03;;;13.46;46.76
8253;BME280;61313;48.396;10.008;2023-04-07T11:49:27;95993.28;;;12.92;47.93
8253;BME280;61313;48.396;10.008;2023-04-07T11:51:58;95995.94;;;12.16;49.21
8253;BME280;61313;48.396;10.008;2023-04-07T11:54:25;96004.59;;;11.86;48.99
8253;BME280;61313;48.396;10.008;2023-04-07T11:56:50;95990.84;;;12.13;49.91
8253;BME280;61313;48.396;10.008;2023-04-07T11:59:23;95990.84;;;12.29;50.29
8253;BME280;61313;48.396;10.008;2023-04-07T12:01:51;95990.22;;;12.70;48.83
8253;BME280;61313;48.396;10.008;2023-04-07T12:04:17;95998.34;;;12.51;49.32
8253;BME280;61313;48.396;10.008;2023-04-07T12:06:44;95992.22;;;12.81;48.83
8253;BME280;61313;48.396;10.008;2023-04-07T12:11:55;95998.81;;;11.64;51.78
8253;BME280;61313;48.396;10.008;2023-04-07T12:14:22;95999.38;;;12.33;49.63
8253;BME280;61313;48.396;10.008;2023-04-07T12:16:48;96002.59;;;12.38;49.34
8253;BME280;61313;48.396;10.008;2023-04-07T12:19:13;96006.03;;;12.54;49.97
8253;BME280;61313;48.396;10.008;2023-04-07T12:21:39;96002.91;;;12.78;48.99
8253;BME280;61313;48.396;10.008;2023-04-07T12:24:05;96003.25;;;12.87;48.23
8253;BME280;61313;48.396;10.008;2023-04-07T12:26:30;96010.19;;;12.88;47.95
8253;BME280;61313;48.396;10.008;2023-04-07T12:28:56;96003.91;;;12.91;48.50
8253;BME280;61313;48.396;10.008;2023-04-07T12:31:23;96008.88;;;12.96;47.75
8253;BME280;61313;48.396;10.008;2023-04-07T12:33:48;96017.38;;;13.15;45.38
8253;BME280;61313;48.396;10.008;2023-04-07T12:36:13;96013.13;;;13.12;43.56
8253;BME280;61313;48.396;10.008;2023-04-07T12:38:39;96018.75;;;12.92;44.86
8253;BME280;61313;48.396;10.008;2023-04-07T12:41:05;96016.91;;;12.64;46.17
8253;BME280;61313;48.396;10.008;2023-04-07T12:43:30;96017.50;;;12.69;45.85
8253;BME280;61313;48.396;10.008;2023-04-07T12:45:56;96016.91;;;12.64;45.84
8253;BME280;61313;48.396;10.008;2023-04-07T12:48:22;96016.72;;;12.67;45.34
8253;BME280;61313;48.396;10.008;2023-04-07T12:50:48;96010.13;;;12.60;44.96
8253;BME280;61313;48.396;10.008;2023-04-07T12:53:14;96015.91;;;12.50;45.57
8253;BME280;61313;48.396;10.008;2023-04-07T12:55:39;96015.13;;;12.64;47.36
8253;BME280;61313;48.396;10.008;2023-04-07T12:58:06;96023.53;;;12.55;50.39
8253;BME280;61313;48.396;10.008;2023-04-07T13:00:32;96025.72;;;12.63;51.00
8253;BME280;61313;48.396;10.008;2023-04-07T13:02:57;96027.78;;;12.58;51.20
8253;BME280;61313;48.396;10.008;2023-04-07T13:05:22;96029.72;;;12.54;50.90
8253;BME280;61313;48.396;10.008;2023-04-07T13:07:48;96035.56;;;12.45;51.88
8253;BME280;61313;48.396;10.008;2023-04-07T13:10:13;96035.69;;;12.42;51.48
8253;BME280;61313;48.396;10.008;2023-04-07T13:12:39;96042.94;;;12.38;52.28
8253;BME280;61313;48.396;10.008;2023-04-07T13:15:05;96037.44;;;12.27;49.53
8253;BME280;61313;48.396;10.008;2023-04-07T13:17:32;96053.38;;;11.92;50.55
8253;BME280;61313;48.396;10.008;2023-04-07T13:19:57;96048.59;;;11.83;52.60
8253;BME280;61313;48.396;10.008;2023-04-07T13:22:23;96048.56;;;12.00;52.99